Time;durP1;ratioP1;P1;durP2;ratioP2;P2;SDS_P1;SDS_P2;PMS_P1;PMS_P2;Temp;Humidity;BMP_temperature;BMP_pressure;BME280_temperature;BME280_humidity;BME280_pressure;Samples;Min_cycle;Max_cycle;Signal;HPM_P1;HPM_P2
2022/09/13 00:01:51;;;;;;;4.03;3.13;;;15.70;98.50;;;;;;5073227;28;20443;-64
2022/09/13 00:04:18;;;;;;;4.47;3.77;;;15.70;98.60;;;;;;5073200;28;20436;-64
2022/09/13 00:06:45;;;;;;;3.60;3.23;;;15.70;98.70;;;;;;5073050;28;20996;-65
2022/09/13 00:09:11;;;;;;;4.13;3.53;;;15.70;98.80;;;;;;5073368;28;20443;-64
2022/09/13 00:11:38;;;;;;;3.93;3.40;;;15.60;98.90;;;;;;5073235;28;20526;-65
2022/09/13 00:14:05;;;;;;;4.77;3.60;;;15.60;99.10;;;;;;5073220;28;20466;-65
2022/09/13 00:16:32;;;;;;;4.30;3.77;;;15.60;99.30;;;;;;5073253;28;20467;-64
2022/09/13 00:19:00;;;;;;;4.20;3.80;;;15.60;99.40;;;;;;5072963;28;20449;-65
2022/09/13 00:21:27;;;;;;;4.20;3.50;;;15.60;99.40;;;;;;5072830;28;20447;-64
2022/09/13 00:23:55;;;;;;;5.00;4.50;;;15.60;99.60;;;;;;5072993;28;20866;-64
2022/09/13 00:26:24;;;;;;;4.60;3.93;;;15.60;99.70;;;;;;5075581;28;20923;-63
2022/09/13 00:28:51;;;;;;;4.43;3.53;;;15.60;99.80;;;;;;5076944;28;20446;-65
2022/09/13 00:31:20;;;;;;;4.70;4.10;;;15.60;99.90;;;;;;5076845;28;20447;-65
2022/09/13 00:33:47;;;;;;;5.00;4.50;;;15.60;99.90;;;;;;5076851;28;20479;-65
2022/09/13 00:36:15;;;;;;;4.80;3.80;;;15.70;99.90;;;;;;5076387;28;21016;-66
2022/09/13 00:38:43;;;;;;;5.23;4.27;;;15.70;99.90;;;;;;5076940;28;20443;-65
2022/09/13 00:41:13;;;;;;;6.20;4.13;;;15.70;99.90;;;;;;5076655;28;20443;-65
2022/09/13 00:43:54;;;;;;;4.67;4.00;;;15.70;99.90;;;;;;5076506;28;20914;-64
2022/09/13 00:46:26;;;;;;;4.37;3.80;;;15.70;99.80;;;;;;5076453;28;20474;-65
2022/09/13 00:48:58;;;;;;;4.47;4.00;;;15.70;99.90;;;;;;5076559;28;20447;-64
2022/09/13 00:51:27;;;;;;;5.93;3.73;;;15.70;99.90;;;;;;5076510;28;20423;-65
2022/09/13 00:53:58;;;;;;;3.90;3.50;;;15.70;99.90;;;;;;5075964;28;20447;-65
2022/09/13 00:56:31;;;;;;;5.23;4.00;;;15.70;99.80;;;;;;5075895;28;21077;-65
2022/09/13 00:59:02;;;;;;;4.83;4.03;;;15.70;99.80;;;;;;5076154;28;20795;-64
2022/09/13 01:01:33;;;;;;;4.43;3.47;;;15.70;99.70;;;;;;5076411;28;20431;-65
2022/09/13 01:04:02;;;;;;;4.13;3.73;;;15.70;99.70;;;;;;5076351;28;20459;-64
2022/09/13 01:06:33;;;;;;;4.07;3.70;;;15.70;99.60;;;;;;5076214;28;20466;-64
2022/09/13 01:09:03;;;;;;;8.07;3.80;;;15.70;99.50;;;;;;5076315;28;20791;-64
2022/09/13 01:11:39;;;;;;;4.43;3.87;;;15.80;99.40;;;;;;5075780;28;20546;-65
2022/09/13 01:14:08;;;;;;;4.37;3.70;;;15.70;99.30;;;;;;5075935;28;20903;-65
2022/09/13 01:16:35;;;;;;;4.90;4.20;;;15.80;99.30;;;;;;5076019;28;20487;-65
2022/09/13 01:19:02;;;;;;;4.20;3.77;;;15.80;99.40;;;;;;5076319;28;20454;-64
2022/09/13 01:22:06;;;;;;;4.40;3.77;;;15.80;99.30;;;;;;5076055;28;20454;-65
2022/09/13 01:25:21;;;;;;;3.63;3.33;;;15.80;99.30;;;;;;5076418;28;20455;-65
2022/09/13 01:28:08;;;;;;;4.97;4.00;;;15.90;99.30;;;;;;5050305;28;20520;-65
2022/09/13 01:30:41;;;;;;;6.20;4.20;;;15.90;99.20;;;;;;5077180;28;20821;-64
2022/09/13 01:33:25;;;;;;;6.37;3.93;;;15.90;99.10;;;;;;5076725;28;20429;-64
2022/09/13 01:36:18;;;;;;;4.90;3.60;;;16.00;99.10;;;;;;5076162;28;20467;-64
2022/09/13 01:38:56;;;;;;;8.47;4.33;;;16.00;99.00;;;;;;5075288;28;20428;-65
2022/09/13 01:41:48;;;;;;;4.30;3.90;;;16.00;98.90;;;;;;5076050;28;20431;-65
2022/09/13 01:44:27;;;;;;;4.13;3.80;;;16.10;98.90;;;;;;5075886;28;20440;-65
2022/09/13 01:47:02;;;;;;;4.20;3.80;;;16.00;98.80;;;;;;5075425;28;20474;-65
2022/09/13 01:49:37;;;;;;;5.10;3.57;;;16.10;98.80;;;;;;5075418;28;20427;-64
2022/09/13 01:52:11;;;;;;;4.17;3.10;;;16.10;98.80;;;;;;5075510;28;20434;-65
2022/09/13 01:54:47;;;;;;;5.60;4.10;;;16.10;98.80;;;;;;5077748;28;20433;-66
2022/09/13 01:57:18;;;;;;;4.83;4.33;;;16.10;98.80;;;;;;5075824;28;20483;-66
2022/09/13 01:59:51;;;;;;;3.87;3.43;;;16.10;98.80;;;;;;5075418;28;20439;-66
2022/09/13 02:02:24;;;;;;;4.53;4.13;;;16.10;98.80;;;;;;5075242;28;20432;-66
2022/09/13 02:04:56;;;;;;;4.40;4.00;;;16.10;98.80;;;;;;5075570;28;20518;-66
2022/09/13 02:07:29;;;;;;;4.10;3.70;;;16.10;98.80;;;;;;5075087;28;20905;-66
2022/09/13 02:10:00;;;;;;;6.10;4.10;;;16.20;98.90;;;;;;5075273;28;20454;-66
2022/09/13 02:12:31;;;;;;;4.43;4.03;;;16.20;98.90;;;;;;5075297;28;20428;-66
2022/09/13 02:15:03;;;;;;;5.03;4.53;;;16.20;98.90;;;;;;5074960;28;20459;-66
2022/09/13 02:17:37;;;;;;;6.33;4.07;;;16.20;99.00;;;;;;5075002;28;20471;-66
2022/09/13 02:20:10;;;;;;;7.00;4.70;;;16.30;99.20;;;;;;5075013;28;20439;-65
2022/09/13 02:22:45;;;;;;;6.30;4.50;;;16.30;99.40;;;;;;5074895;28;20767;-66
2022/09/13 02:25:15;;;;;;;5.00;4.60;;;16.30;99.60;;;;;;5075169;28;20438;-66
2022/09/13 02:27:48;;;;;;;4.90;4.20;;;16.30;99.70;;;;;;5075195;28;20478;-66
2022/09/13 02:30:15;;;;;;;4.87;4.23;;;16.30;99.90;;;;;;5075630;28;20423;-65
2022/09/13 02:32:49;;;;;;;6.33;5.10;;;16.30;99.90;;;;;;5074778;28;20478;-66
2022/09/13 02:35:20;;;;;;;6.47;4.10;;;16.40;99.90;;;;;;5074414;28;20463;-66
2022/09/13 02:37:53;;;;;;;4.80;4.07;;;16.40;99.90;;;;;;5074637;28;20467;-66
2022/09/13 02:40:27;;;;;;;5.63;4.10;;;16.40;99.90;;;;;;5074210;28;20435;-66
2022/09/13 02:43:00;;;;;;;5.03;4.20;;;16.50;99.90;;;;;;5074092;28;20438;-66
2022/09/13 02:45:36;;;;;;;4.97;4.07;;;16.50;99.90;;;;;;5074468;28;20787;-66
2022/09/13 02:48:10;;;;;;;7.67;4.33;;;16.50;99.90;;;;;;5075058;28;20485;-65
2022/09/13 02:50:46;;;;;;;7.33;5.20;;;16.50;99.90;;;;;;5073795;28;20468;-64
2022/09/13 02:53:25;;;;;;;7.50;5.10;;;16.50;99.90;;;;;;5073857;28;20423;-64
2022/09/13 02:55:58;;;;;;;6.87;5.40;;;16.40;99.90;;;;;;5074239;28;20471;-64
2022/09/13 02:58:33;;;;;;;5.53;4.40;;;16.30;99.90;;;;;;5074121;28;20434;-64
2022/09/13 03:01:00;;;;;;;6.13;4.83;;;16.20;99.90;;;;;;5074004;28;20434;-64
2022/09/13 03:03:28;;;;;;;5.83;4.93;;;16.10;99.90;;;;;;5074122;28;20458;-64
2022/09/13 03:05:55;;;;;;;6.10;5.50;;;16.00;99.90;;;;;;5074022;28;20446;-64
2022/09/13 03:08:23;;;;;;;7.90;6.30;;;15.90;99.90;;;;;;5074122;28;20451;-64
2022/09/13 03:10:59;;;;;;;11.00;6.37;;;15.90;99.90;;;;;;5073915;28;20447;-63
2022/09/13 03:13:40;;;;;;;7.47;5.70;;;15.90;99.90;;;;;;5073991;28;20427;-64
2022/09/13 03:16:20;;;;;;;7.33;6.50;;;15.90;99.90;;;;;;5073789;28;20470;-63
2022/09/13 03:18:56;;;;;;;7.63;6.17;;;15.90;99.90;;;;;;5073516;28;20423;-64
2022/09/13 03:21:42;;;;;;;7.40;6.10;;;15.90;99.90;;;;;;5073680;28;20785;-64
2022/09/13 03:24:18;;;;;;;8.90;6.80;;;15.90;99.90;;;;;;5074572;28;20435;-64
2022/09/13 03:27:00;;;;;;;6.87;6.17;;;15.90;99.90;;;;;;5073568;28;20458;-64
2022/09/13 03:29:32;;;;;;;6.80;6.20;;;15.90;99.90;;;;;;5073494;28;20856;-64
2022/09/13 03:32:15;;;;;;;7.33;6.63;;;15.90;99.90;;;;;;5074164;28;20432;-64
2022/09/13 03:34:53;;;;;;;8.80;7.40;;;15.90;99.90;;;;;;5073527;28;20778;-64
2022/09/13 03:37:27;;;;;;;7.50;6.53;;;15.90;99.90;;;;;;5073093;28;21002;-64
2022/09/13 03:39:59;;;;;;;8.50;6.57;;;15.90;99.90;;;;;;5073251;28;20435;-64
2022/09/13 03:42:33;;;;;;;8.13;6.73;;;15.90;99.90;;;;;;5073416;28;20427;-64
2022/09/13 03:45:02;;;;;;;8.50;6.83;;;15.90;99.90;;;;;;5073177;28;20427;-64
2022/09/13 03:47:33;;;;;;;6.47;5.87;;;15.90;99.90;;;;;;5072855;28;20471;-64
2022/09/13 03:50:02;;;;;;;8.03;7.23;;;15.90;99.90;;;;;;5074149;28;20427;-65
2022/09/13 03:52:29;;;;;;;7.20;6.33;;;16.00;99.90;;;;;;5072959;28;20880;-65
2022/09/13 03:54:57;;;;;;;9.20;6.57;;;16.00;99.90;;;;;;5073435;28;20807;-64
2022/09/13 03:57:24;;;;;;;9.40;6.63;;;16.00;99.90;;;;;;5073029;28;20498;-63
2022/09/13 03:59:53;;;;;;;6.30;5.30;;;16.00;99.90;;;;;;5072911;28;20822;-63
2022/09/13 04:02:22;;;;;;;7.70;6.90;;;16.00;99.90;;;;;;5072825;28;20868;-63
2022/09/13 04:04:49;;;;;;;7.70;5.90;;;16.10;99.90;;;;;;5062837;28;20448;-65
2022/09/13 04:10:13;;;;;;;9.50;6.60;;;16.10;99.90;;;;;;5090883;27;21061;-65
2022/09/13 04:12:41;;;;;;;6.87;6.10;;;16.10;99.90;;;;;;5090666;28;20446;-65
2022/09/13 04:15:09;;;;;;;8.30;7.43;;;16.10;99.90;;;;;;5090718;28;20511;-64
2022/09/13 04:17:36;;;;;;;8.20;6.70;;;16.10;99.90;;;;;;5090495;28;20470;-65
2022/09/13 04:20:04;;;;;;;7.97;7.17;;;16.10;99.90;;;;;;5089595;28;20508;-65
2022/09/13 04:22:32;;;;;;;10.07;6.60;;;16.10;99.90;;;;;;5090577;28;20545;-64
2022/09/13 04:24:59;;;;;;;6.67;6.07;;;16.10;99.90;;;;;;5088128;28;20532;-64
2022/09/13 04:27:27;;;;;;;8.27;6.83;;;16.10;99.90;;;;;;5093272;28;20463;-65
2022/09/13 04:29:54;;;;;;;7.33;6.30;;;16.10;99.90;;;;;;5097837;28;20474;-64
2022/09/13 04:32:20;;;;;;;8.90;6.93;;;16.10;99.90;;;;;;5094849;28;20446;-65
2022/09/13 04:34:47;;;;;;;7.90;6.93;;;16.10;99.90;;;;;;5092718;28;20450;-65
2022/09/13 04:37:14;;;;;;;11.23;7.00;;;16.20;99.90;;;;;;5092203;28;20566;-64
2022/09/13 04:39:41;;;;;;;6.83;6.20;;;16.10;99.90;;;;;;5073655;28;20450;-67
2022/09/13 04:42:10;;;;;;;11.33;6.30;;;16.20;99.90;;;;;;5090334;28;20479;-64
2022/09/13 04:44:38;;;;;;;6.70;6.10;;;16.10;99.90;;;;;;5089458;28;20516;-65
2022/09/13 04:47:06;;;;;;;8.13;6.63;;;16.10;99.90;;;;;;5089954;28;20501;-64
2022/09/13 04:49:33;;;;;;;8.37;6.27;;;16.10;99.90;;;;;;5089890;28;20474;-65
2022/09/13 04:52:00;;;;;;;7.13;6.43;;;16.10;99.90;;;;;;5090607;28;20443;-64
2022/09/13 04:54:27;;;;;;;8.57;6.10;;;16.10;99.90;;;;;;5088373;28;20442;-66
2022/09/13 04:56:54;;;;;;;8.57;6.50;;;16.10;99.90;;;;;;5090736;28;20462;-64
2022/09/13 04:59:21;;;;;;;7.00;6.10;;;16.20;99.90;;;;;;5083619;28;20490;-64
2022/09/13 05:01:49;;;;;;;9.20;7.83;;;16.20;99.90;;;;;;5083361;28;20442;-64
2022/09/13 05:04:16;;;;;;;8.70;7.10;;;16.20;99.90;;;;;;5077819;28;20542;-63
2022/09/13 05:06:42;;;;;;;6.60;5.90;;;16.20;99.90;;;;;;5084687;28;20990;-65
2022/09/13 05:09:13;;;;;;;8.53;6.57;;;16.20;99.90;;;;;;5089825;28;20508;-65
2022/09/13 05:11:40;;;;;;;8.90;6.40;;;16.20;99.90;;;;;;5070126;28;20923;-64
2022/09/13 05:14:10;;;;;;;7.00;6.30;;;16.20;99.90;;;;;;5070164;28;20447;-64
2022/09/13 05:16:36;;;;;;;6.80;6.20;;;16.20;99.90;;;;;;5068615;28;20807;-64
2022/09/13 05:19:05;;;;;;;7.00;5.93;;;16.20;99.90;;;;;;5072481;28;20443;-65
2022/09/13 05:21:32;;;;;;;8.80;6.67;;;16.30;99.90;;;;;;5067384;28;20436;-65
2022/09/13 05:23:59;;;;;;;8.03;6.80;;;16.30;99.90;;;;;;5066622;28;20451;-65
2022/09/13 05:26:28;;;;;;;10.30;7.93;;;16.30;99.90;;;;;;5066580;28;20464;-66
2022/09/13 05:28:54;;;;;;;7.00;6.37;;;16.30;99.90;;;;;;5065258;28;20498;-64
2022/09/13 05:31:24;;;;;;;7.80;7.00;;;16.30;99.90;;;;;;5057631;28;20494;-66
2022/09/13 05:33:54;;;;;;;7.43;6.73;;;16.40;99.90;;;;;;5056895;28;20479;-66
2022/09/13 05:36:22;;;;;;;6.53;5.87;;;16.40;99.90;;;;;;5055784;28;20575;-65
2022/09/13 05:38:49;;;;;;;8.33;7.53;;;16.40;99.90;;;;;;5055852;28;20835;-65
2022/09/13 05:41:16;;;;;;;8.83;6.70;;;16.40;99.90;;;;;;5056593;28;20827;-63
2022/09/13 05:43:42;;;;;;;8.33;6.80;;;16.40;99.90;;;;;;5055353;28;20449;-64
2022/09/13 05:46:12;;;;;;;6.30;5.67;;;16.40;99.90;;;;;;5055426;28;20451;-65
2022/09/13 05:48:39;;;;;;;7.20;6.50;;;16.40;99.90;;;;;;5056235;28;20483;-64
2022/09/13 05:51:07;;;;;;;7.60;6.80;;;16.40;99.90;;;;;;5056165;28;20459;-65
2022/09/13 05:53:38;;;;;;;9.73;5.90;;;16.50;99.90;;;;;;5055790;28;20448;-65
2022/09/13 05:56:05;;;;;;;6.63;5.97;;;16.50;99.90;;;;;;5060551;28;20444;-65
2022/09/13 05:58:32;;;;;;;7.83;6.60;;;16.50;99.90;;;;;;5074042;28;20536;-65
2022/09/13 06:00:59;;;;;;;8.33;5.87;;;16.60;99.90;;;;;;5075720;28;20445;-64
2022/09/13 06:03:26;;;;;;;8.30;6.27;;;16.60;99.90;;;;;;5065722;28;20455;-65
2022/09/13 06:05:56;;;;;;;8.37;6.43;;;16.70;99.90;;;;;;5063700;28;20444;-63
2022/09/13 06:08:23;;;;;;;8.33;6.43;;;16.70;99.90;;;;;;5057008;28;20448;-64
2022/09/13 06:10:59;;;;;;;7.07;6.37;;;16.70;99.90;;;;;;5057059;28;20456;-65
2022/09/13 06:13:27;;;;;;;10.53;6.97;;;16.70;99.90;;;;;;5063131;28;20447;-65
2022/09/13 06:15:56;;;;;;;7.93;6.17;;;16.80;99.90;;;;;;5068481;28;20447;-64
2022/09/13 06:18:23;;;;;;;7.90;6.30;;;16.80;99.90;;;;;;5076331;28;20454;-65
2022/09/13 06:20:50;;;;;;;6.93;6.10;;;16.90;99.90;;;;;;5074870;28;20447;-65
2022/09/13 06:23:17;;;;;;;6.53;5.87;;;16.90;99.90;;;;;;5062884;28;20454;-64
2022/09/13 06:25:44;;;;;;;9.43;7.27;;;17.00;99.90;;;;;;5062096;28;20445;-63
2022/09/13 06:28:12;;;;;;;6.83;6.17;;;17.00;99.90;;;;;;5074251;28;20462;-63
2022/09/13 06:30:39;;;;;;;9.50;6.20;;;17.10;99.90;;;;;;5072620;28;20480;-62
2022/09/13 06:33:05;;;;;;;6.63;5.73;;;17.10;99.90;;;;;;5075878;28;20455;-63
2022/09/13 06:35:32;;;;;;;6.30;5.70;;;17.20;99.90;;;;;;5076806;28;20804;-64
2022/09/13 06:37:59;;;;;;;7.23;5.80;;;17.30;99.90;;;;;;5079919;28;20464;-64
2022/09/13 06:40:26;;;;;;;6.80;6.10;;;17.30;99.90;;;;;;5078355;28;20440;-62
2022/09/13 06:42:53;;;;;;;8.70;6.20;;;17.40;99.90;;;;;;5062536;28;20499;-61
2022/09/13 06:45:21;;;;;;;6.43;5.80;;;17.40;99.90;;;;;;5063729;28;20463;-64
2022/09/13 06:47:48;;;;;;;7.67;6.47;;;17.40;99.90;;;;;;5065562;28;20496;-63
2022/09/13 06:50:15;;;;;;;7.68;5.95;;;17.50;99.90;;;;;;5070223;28;20481;-65
2022/09/13 06:52:42;;;;;;;7.00;6.30;;;17.50;99.90;;;;;;5075263;28;20441;-66
2022/09/13 06:55:09;;;;;;;8.47;7.00;;;17.50;99.90;;;;;;5081457;28;20497;-66
2022/09/13 06:57:36;;;;;;;6.13;5.57;;;17.50;99.90;;;;;;5080520;28;20470;-65
2022/09/13 07:00:03;;;;;;;6.20;5.60;;;17.50;99.90;;;;;;5075279;28;20435;-65
2022/09/13 07:02:31;;;;;;;6.27;5.67;;;17.60;99.90;;;;;;5074926;28;20450;-65
2022/09/13 07:04:58;;;;;;;7.57;6.30;;;17.60;99.90;;;;;;5074374;28;20443;-65
2022/09/13 07:07:25;;;;;;;6.17;5.40;;;17.70;99.90;;;;;;5074279;28;20463;-65
2022/09/13 07:09:51;;;;;;;7.13;5.50;;;17.70;99.90;;;;;;5074175;28;20487;-65
2022/09/13 07:12:18;;;;;;;6.90;5.63;;;17.70;99.90;;;;;;5075142;28;20970;-64
2022/09/13 07:14:45;;;;;;;5.90;5.23;;;17.70;99.90;;;;;;5075676;28;20447;-66
2022/09/13 07:17:12;;;;;;;7.30;6.67;;;17.70;99.90;;;;;;5076663;28;20825;-64
2022/09/13 07:19:40;;;;;;;7.70;6.07;;;17.70;99.90;;;;;;5077645;28;20450;-64
2022/09/13 07:22:07;;;;;;;8.27;6.30;;;17.70;99.90;;;;;;5080786;28;20457;-66
2022/09/13 07:24:34;;;;;;;7.10;5.90;;;17.70;99.90;;;;;;5076224;28;20445;-66
2022/09/13 07:27:01;;;;;;;6.80;6.20;;;17.70;99.90;;;;;;5074508;28;20471;-65
2022/09/13 07:29:27;;;;;;;6.73;5.90;;;17.70;99.90;;;;;;5073488;28;20476;-65
2022/09/13 07:31:57;;;;;;;9.50;6.63;;;17.70;99.90;;;;;;5057633;28;20448;-64
2022/09/13 07:34:25;;;;;;;7.40;6.30;;;17.80;99.90;;;;;;5061990;28;20448;-63
2022/09/13 07:36:53;;;;;;;6.70;6.10;;;17.80;99.90;;;;;;5067071;28;20456;-64
2022/09/13 07:39:20;;;;;;;7.77;5.97;;;17.90;99.90;;;;;;5069472;28;20440;-64
2022/09/13 07:41:47;;;;;;;7.50;6.20;;;17.90;99.90;;;;;;5070323;28;20437;-66
2022/09/13 07:44:14;;;;;;;6.57;5.97;;;18.00;99.90;;;;;;5069149;28;20451;-65
2022/09/13 07:46:42;;;;;;;8.10;6.00;;;18.00;99.90;;;;;;5068047;28;20543;-64
2022/09/13 07:49:10;;;;;;;6.87;6.20;;;18.10;99.90;;;;;;5060917;28;20458;-63
2022/09/13 07:51:38;;;;;;;7.20;5.93;;;18.20;99.90;;;;;;5054103;28;20452;-63
2022/09/13 07:54:10;;;;;;;7.03;6.33;;;18.20;99.90;;;;;;5053937;28;20448;-64
2022/09/13 07:56:38;;;;;;;7.20;6.43;;;18.30;99.90;;;;;;5052867;28;20472;-64
2022/09/13 07:59:06;;;;;;;10.53;6.20;;;18.30;99.90;;;;;;5053006;28;20452;-65
2022/09/13 08:01:36;;;;;;;6.30;5.70;;;18.40;99.90;;;;;;5052818;28;20452;-64
2022/09/13 08:04:05;;;;;;;6.43;5.33;;;18.50;99.90;;;;;;5053391;28;20450;-65
2022/09/13 08:06:34;;;;;;;7.70;6.53;;;18.70;99.90;;;;;;5053123;28;20464;-66
2022/09/13 08:09:02;;;;;;;7.67;6.90;;;18.80;99.90;;;;;;5052698;28;20487;-66
2022/09/13 08:11:31;;;;;;;8.80;6.30;;;19.00;99.90;;;;;;5053055;28;20440;-64
2022/09/13 08:13:59;;;;;;;7.03;6.33;;;19.10;99.90;;;;;;5053254;28;20456;-64
2022/09/13 08:16:27;;;;;;;7.10;6.40;;;19.10;99.90;;;;;;5053379;28;20487;-64
2022/09/13 08:18:55;;;;;;;9.63;7.27;;;19.20;99.90;;;;;;5053489;28;20472;-64
2022/09/13 08:21:23;;;;;;;9.40;6.57;;;19.20;99.90;;;;;;5052991;28;20443;-64
2022/09/13 08:23:53;;;;;;;8.87;6.60;;;19.30;99.90;;;;;;5053597;28;20451;-66
2022/09/13 08:26:20;;;;;;;11.20;7.50;;;19.40;99.90;;;;;;5052470;28;20464;-65
2022/09/13 08:28:48;;;;;;;9.40;7.17;;;19.40;99.90;;;;;;5052665;28;20501;-64
2022/09/13 08:31:18;;;;;;;9.80;6.97;;;19.40;99.90;;;;;;5053340;28;20498;-64
2022/09/13 08:33:47;;;;;;;8.67;7.00;;;19.40;99.90;;;;;;5052586;28;20484;-64
2022/09/13 08:36:15;;;;;;;7.57;6.47;;;19.40;99.90;;;;;;5052724;28;20542;-65
2022/09/13 08:38:48;;;;;;;7.03;6.33;;;19.40;99.90;;;;;;5052582;28;20542;-64
2022/09/13 08:41:31;;;;;;;8.93;7.17;;;19.30;99.90;;;;;;5052615;28;20821;-65
2022/09/13 08:44:04;;;;;;;7.73;6.90;;;19.30;99.90;;;;;;5052561;28;20451;-65
2022/09/13 08:49:10;;;;;;;7.53;6.80;;;19.30;99.90;;;;;;5051319;28;20464;-62
2022/09/13 08:51:46;;;;;;;9.00;6.50;;;19.40;99.90;;;;;;5055108;28;20512;-61
2022/09/13 08:54:15;;;;;;;8.33;6.63;;;19.50;99.90;;;;;;5053123;28;20435;-62
2022/09/13 08:56:46;;;;;;;8.83;7.40;;;19.50;99.90;;;;;;5056874;28;20558;-62
2022/09/13 08:59:29;;;;;;;9.03;6.20;;;19.60;99.90;;;;;;5057043;28;20424;-63
2022/09/13 09:02:10;;;;;;;7.30;6.43;;;19.70;99.90;;;;;;5057319;28;20477;-62
2022/09/13 09:04:45;;;;;;;8.00;6.93;;;19.90;99.90;;;;;;5056829;28;20886;-63
2022/09/13 09:07:16;;;;;;;8.43;6.43;;;20.00;99.90;;;;;;5056222;28;20462;-62
2022/09/13 09:09:49;;;;;;;8.87;7.10;;;20.10;99.30;;;;;;5056797;28;20468;-62
2022/09/13 09:12:23;;;;;;;9.07;8.17;;;20.20;99.10;;;;;;5059341;28;20435;-61
2022/09/13 09:15:01;;;;;;;9.17;8.20;;;20.40;98.60;;;;;;5057492;28;20937;-61
2022/09/13 09:17:33;;;;;;;8.30;6.63;;;20.60;97.80;;;;;;5056886;28;20463;-62
2022/09/13 09:20:08;;;;;;;12.80;7.57;;;20.70;97.10;;;;;;5056906;28;20448;-61
2022/09/13 09:22:36;;;;;;;8.83;7.20;;;20.80;96.70;;;;;;5056740;28;20843;-61
2022/09/13 09:25:04;;;;;;;8.50;7.30;;;20.90;96.10;;;;;;5056353;28;20953;-60
2022/09/13 09:27:32;;;;;;;10.10;7.13;;;21.00;95.50;;;;;;5058162;28;21007;-62
2022/09/13 09:30:01;;;;;;;9.07;8.17;;;20.90;95.30;;;;;;5058025;28;20930;-61
2022/09/13 09:32:47;;;;;;;11.47;8.40;;;21.00;95.20;;;;;;5058067;28;20962;-62
2022/09/13 09:35:21;;;;;;;11.17;8.27;;;21.20;94.50;;;;;;5057158;28;20770;-62
2022/09/13 09:38:03;;;;;;;8.63;7.43;;;21.10;94.10;;;;;;5056191;28;20501;-61
2022/09/13 09:40:32;;;;;;;10.20;7.80;;;21.20;94.20;;;;;;5056484;28;20435;-62
2022/09/13 09:42:59;;;;;;;13.83;8.43;;;21.20;93.90;;;;;;5056609;28;20446;-61
2022/09/13 09:45:30;;;;;;;10.50;9.40;;;21.20;93.90;;;;;;5056742;28;20507;-62
2022/09/13 09:48:01;;;;;;;10.87;9.30;;;21.10;93.70;;;;;;5055190;28;20481;-60
2022/09/13 09:50:33;;;;;;;9.57;7.70;;;21.10;93.70;;;;;;5055608;28;20471;-61
2022/09/13 09:53:04;;;;;;;11.00;9.03;;;21.00;93.70;;;;;;5055487;28;20435;-61
2022/09/13 09:55:34;;;;;;;11.50;9.40;;;21.00;93.70;;;;;;5055046;28;20434;-63
2022/09/13 09:58:05;;;;;;;10.50;9.00;;;20.90;93.70;;;;;;5056792;28;20471;-61
2022/09/13 10:00:35;;;;;;;11.30;8.80;;;20.90;93.90;;;;;;5057386;28;20437;-60
2022/09/13 10:03:05;;;;;;;10.20;8.57;;;20.90;93.90;;;;;;5056576;28;20449;-60
2022/09/13 10:05:33;;;;;;;9.83;8.83;;;21.00;94.10;;;;;;5056282;28;20444;-61
2022/09/13 10:08:02;;;;;;;11.07;8.80;;;21.00;93.90;;;;;;5060432;28;20461;-59
2022/09/13 10:10:41;;;;;;;11.87;9.00;;;21.00;93.90;;;;;;5059964;28;20524;-61
2022/09/13 10:13:14;;;;;;;12.07;8.70;;;21.00;94.10;;;;;;5060243;28;20429;-61
2022/09/13 10:15:53;;;;;;;9.33;7.97;;;21.10;94.20;;;;;;5057554;28;20427;-59
2022/09/13 10:18:23;;;;;;;10.73;8.47;;;21.30;94.00;;;;;;5057744;28;20466;-61
2022/09/13 10:21:01;;;;;;;10.33;8.83;;;21.40;94.00;;;;;;5059862;28;20442;-60
2022/09/13 10:23:29;;;;;;;14.23;9.77;;;21.50;94.10;;;;;;5060269;28;20441;-63
2022/09/13 10:26:05;;;;;;;9.97;8.83;;;21.50;94.20;;;;;;5056635;28;20545;-62
2022/09/13 10:28:35;;;;;;;12.60;9.23;;;21.60;94.20;;;;;;5055218;28;20460;-62
2022/09/13 10:31:07;;;;;;;10.77;8.93;;;21.70;94.50;;;;;;5056570;28;21075;-63
2022/09/13 10:33:37;;;;;;;9.77;8.27;;;21.60;94.30;;;;;;5062172;28;20529;-63
2022/09/13 10:36:08;;;;;;;10.30;9.30;;;21.60;94.40;;;;;;5059722;28;20461;-62
2022/09/13 10:38:37;;;;;;;10.17;9.00;;;21.60;94.60;;;;;;5060398;28;20470;-63
2022/09/13 10:41:06;;;;;;;10.60;8.83;;;21.60;94.60;;;;;;5057723;28;20435;-63
2022/09/13 10:43:34;;;;;;;11.00;8.33;;;21.70;94.40;;;;;;5055023;28;20945;-63
2022/09/13 10:46:04;;;;;;;10.93;9.30;;;21.70;94.30;;;;;;5054743;28;20537;-63
2022/09/13 10:48:44;;;;;;;10.30;9.20;;;21.70;94.20;;;;;;5055084;28;20852;-63
2022/09/13 10:51:21;;;;;;;15.97;9.83;;;21.70;94.30;;;;;;5057052;28;20470;-62
2022/09/13 10:53:48;;;;;;;15.37;10.67;;;21.70;94.30;;;;;;5054405;28;20438;-62
2022/09/13 10:56:21;;;;;;;13.67;10.03;;;21.70;94.40;;;;;;5054486;28;20915;-61
2022/09/13 10:58:48;;;;;;;12.93;11.10;;;21.60;94.40;;;;;;5055085;28;20465;-62
2022/09/13 11:01:41;;;;;;;10.70;9.40;;;21.50;94.40;;;;;;5054107;28;20826;-62
2022/09/13 11:04:36;;;;;;;13.17;11.80;;;21.40;94.60;;;;;;5054912;28;20477;-62
2022/09/13 11:07:24;;;;;;;11.63;10.50;;;21.40;94.80;;;;;;5038503;28;20474;-62
2022/09/13 11:09:57;;;;;;;11.53;9.40;;;21.40;94.80;;;;;;5056768;28;20435;-61
2022/09/13 11:12:33;;;;;;;10.33;9.43;;;21.40;94.70;;;;;;5055855;28;20425;-63
2022/09/13 11:15:12;;;;;;;12.50;11.20;;;21.40;94.80;;;;;;5055458;28;20432;-62
2022/09/13 11:17:55;;;;;;;11.87;10.67;;;21.40;95.00;;;;;;5055880;28;20502;-61
2022/09/13 11:20:32;;;;;;;11.40;10.20;;;21.30;95.10;;;;;;5055098;28;20423;-64
2022/09/13 11:23:20;;;;;;;11.03;9.17;;;21.30;95.30;;;;;;5054866;28;20435;-61
2022/09/13 11:25:56;;;;;;;10.70;9.60;;;21.30;95.40;;;;;;5055891;28;20440;-64
2022/09/13 11:28:35;;;;;;;12.43;10.60;;;21.30;95.50;;;;;;5057461;28;20472;-63
2022/09/13 11:31:27;;;;;;;12.77;11.50;;;21.30;95.80;;;;;;5056020;28;21023;-64
2022/09/13 11:34:12;;;;;;;11.17;10.07;;;21.10;96.20;;;;;;5055060;28;20429;-64
2022/09/13 11:36:58;;;;;;;14.17;10.63;;;21.00;96.80;;;;;;5056367;28;20464;-63
2022/09/13 11:39:31;;;;;;;14.53;12.17;;;20.90;97.40;;;;;;5053726;28;20427;-63
2022/09/13 11:42:07;;;;;;;13.40;10.87;;;20.80;97.70;;;;;;5053834;28;20436;-62
2022/09/13 11:44:56;;;;;;;13.63;12.07;;;20.80;98.10;;;;;;5053548;28;20430;-63
2022/09/13 11:47:37;;;;;;;13.87;12.40;;;20.90;98.40;;;;;;5052986;28;20487;-61
2022/09/13 11:50:27;;;;;;;13.67;12.37;;;20.90;98.50;;;;;;5052981;28;20424;-62
2022/09/13 11:53:08;;;;;;;14.07;12.77;;;20.80;98.70;;;;;;5053492;28;20426;-63
2022/09/13 11:55:39;;;;;;;14.13;12.73;;;20.80;99.00;;;;;;5053159;28;20513;-62
2022/09/13 11:58:13;;;;;;;15.37;12.70;;;20.70;99.20;;;;;;5053167;28;20469;-62
2022/09/13 12:00:43;;;;;;;14.17;12.70;;;20.70;99.50;;;;;;5053100;28;20437;-64
2022/09/13 12:03:17;;;;;;;16.17;13.77;;;20.70;99.60;;;;;;5053002;28;20447;-63
2022/09/13 12:05:50;;;;;;;14.73;13.10;;;20.60;99.80;;;;;;5055252;28;20433;-62
2022/09/13 12:08:21;;;;;;;15.30;13.43;;;20.60;99.90;;;;;;5054533;28;20517;-61
2022/09/13 12:10:52;;;;;;;16.30;14.70;;;20.40;99.90;;;;;;5052612;28;20944;-61
2022/09/13 12:13:24;;;;;;;12.00;10.60;;;20.30;99.90;;;;;;5053307;28;20452;-63
2022/09/13 12:15:53;;;;;;;14.13;12.73;;;20.30;99.90;;;;;;5053419;28;20430;-63
2022/09/13 12:18:24;;;;;;;14.70;12.57;;;20.10;99.90;;;;;;5052590;28;20900;-63
2022/09/13 12:20:55;;;;;;;14.67;12.57;;;20.10;99.90;;;;;;5052472;28;20440;-61
2022/09/13 12:23:26;;;;;;;15.73;12.30;;;20.00;99.90;;;;;;5052590;28;20928;-62
2022/09/13 12:26:00;;;;;;;13.60;12.17;;;19.90;99.90;;;;;;5053022;28;20447;-62
2022/09/13 12:28:30;;;;;;;13.83;12.43;;;19.90;99.90;;;;;;5053019;28;20839;-61
2022/09/13 12:31:01;;;;;;;15.17;13.57;;;19.80;99.90;;;;;;5054590;28;20480;-61
2022/09/13 12:33:28;;;;;;;14.47;13.03;;;19.80;99.90;;;;;;5056625;28;20448;-62
2022/09/13 12:36:17;;;;;;;15.57;13.67;;;19.80;99.90;;;;;;5056770;28;20813;-62
2022/09/13 12:39:24;;;;;;;15.10;13.50;;;19.90;99.90;;;;;;5056769;28;20508;-63
2022/09/13 12:42:06;;;;;;;12.80;11.60;;;20.10;99.90;;;;;;5056527;28;20435;-62
2022/09/13 12:44:47;;;;;;;6.70;6.10;;;20.10;99.90;;;;;;5056507;28;20469;-63
2022/09/13 12:47:36;;;;;;;6.77;6.07;;;20.30;99.90;;;;;;5056295;28;20471;-62
2022/09/13 12:50:16;;;;;;;6.33;5.77;;;20.40;99.90;;;;;;5056731;28;20438;-62
2022/09/13 12:52:52;;;;;;;6.17;5.67;;;20.50;99.90;;;;;;5057134;28;20472;-63
2022/09/13 12:55:47;;;;;;;8.23;7.43;;;20.60;99.90;;;;;;5056835;28;20455;-64
2022/09/13 12:58:42;;;;;;;9.23;8.43;;;20.50;99.90;;;;;;5055669;28;20463;-63
2022/09/13 13:01:12;;;;;;;9.00;8.10;;;20.40;99.90;;;;;;5052140;28;20459;-63
2022/09/13 13:03:48;;;;;;;9.33;8.27;;;20.30;99.90;;;;;;5055887;28;20440;-62
2022/09/13 13:06:26;;;;;;;7.07;6.37;;;20.20;99.90;;;;;;5055856;28;20956;-63
2022/09/13 13:08:56;;;;;;;6.20;5.60;;;20.30;99.90;;;;;;5055472;28;20461;-59
2022/09/13 13:11:25;;;;;;;6.53;5.93;;;20.40;99.90;;;;;;5055387;28;20852;-62
2022/09/13 13:13:57;;;;;;;7.40;6.73;;;20.50;99.90;;;;;;5056540;28;20463;-61